createdAt,value
2023-08-12T00:00:44.468Z,101771.31
2023-08-12T00:03:11.305Z,101744.78
2023-08-12T00:05:41.185Z,101762.44
2023-08-12T00:08:07.893Z,101718.88
2023-08-12T00:10:36.780Z,101776.69
2023-08-12T00:13:05.791Z,101768.72
2023-08-12T00:15:32.528Z,101780.28
2023-08-12T00:17:59.229Z,101771.50
2023-08-12T00:20:25.941Z,101770.66
2023-08-12T00:22:55.520Z,101745.06
2023-08-12T00:25:22.190Z,101768.97
2023-08-12T00:27:48.843Z,101761.13
2023-08-12T00:30:18.094Z,101747.78
2023-08-12T00:32:44.920Z,101770.81
2023-08-12T00:35:11.664Z,101762.09
2023-08-12T00:37:38.328Z,101755.03
2023-08-12T00:40:05.987Z,101763.03
2023-08-12T00:42:32.733Z,101763.84
2023-08-12T00:44:59.476Z,101715.19
2023-08-12T00:47:29.252Z,101746.31
2023-08-12T00:49:58.380Z,101737.44
2023-08-12T00:52:25.351Z,101752.59
2023-08-12T00:54:54.108Z,101737.50
2023-08-12T00:57:21.121Z,101744.63
2023-08-12T00:59:50.133Z,101752.66
2023-08-12T01:02:21.317Z,101695.91
2023-08-12T01:04:48.172Z,101694.19
2023-08-12T01:07:15.038Z,101744.75
2023-08-12T01:09:44.964Z,101707.63
2023-08-12T01:12:22.183Z,101737.75
2023-08-12T01:15:10.283Z,101740.41
2023-08-12T01:17:42.606Z,101729.78
2023-08-12T01:20:15.827Z,101647.34
2023-08-12T01:22:45.689Z,101688.91
2023-08-12T01:25:14.573Z,101742.16
2023-08-12T01:27:41.187Z,101738.63
2023-08-12T01:30:11.851Z,101744.81
2023-08-12T01:32:49.174Z,101745.69
2023-08-12T01:35:33.507Z,101750.94
2023-08-12T01:38:05.178Z,101745.69
2023-08-12T01:40:34.353Z,101734.19
2023-08-12T01:43:08.467Z,101728.81
2023-08-12T01:45:35.902Z,101753.59
2023-08-12T01:48:06.311Z,101743.00
2023-08-12T01:50:32.974Z,101747.47
2023-08-12T01:52:59.740Z,101737.72
2023-08-12T01:55:26.697Z,101745.72
2023-08-12T01:57:53.348Z,101704.91
2023-08-12T02:00:20.035Z,101728.00
2023-08-12T02:02:47.990Z,101720.91
2023-08-12T02:05:15.933Z,101728.88
2023-08-12T02:07:42.594Z,101699.47
2023-08-12T02:10:09.847Z,101728.66
2023-08-12T02:12:36.450Z,101694.03
2023-08-12T02:15:03.438Z,101724.03
2023-08-12T02:17:32.292Z,101724.78
2023-08-12T02:20:01.376Z,101728.22
2023-08-12T02:22:30.576Z,101719.25
2023-08-12T02:24:57.258Z,101716.44
2023-08-12T02:27:23.829Z,101717.28
2023-08-12T02:29:50.432Z,101706.59
2023-08-12T02:32:17.085Z,101701.25
2023-08-12T02:34:48.538Z,101695.03
2023-08-12T02:37:19.997Z,101680.66
2023-08-12T02:39:46.667Z,101700.97
2023-08-12T02:42:15.577Z,101688.63
2023-08-12T02:44:42.266Z,101685.00
2023-08-12T02:47:08.947Z,101681.41
2023-08-12T02:49:38.683Z,101695.44
2023-08-12T02:52:05.732Z,101692.78
2023-08-12T02:54:35.293Z,101682.00
2023-08-12T02:57:01.909Z,101681.13
2023-08-12T02:59:28.541Z,101696.91
2023-08-12T03:01:55.481Z,101678.31
2023-08-12T03:04:23.867Z,101662.22
2023-08-12T03:06:50.455Z,101696.66
2023-08-12T03:09:19.469Z,101683.44
2023-08-12T03:11:46.162Z,101662.19
2023-08-12T03:14:13.196Z,101678.97
2023-08-12T03:16:39.832Z,101688.59
2023-08-12T03:19:08.751Z,101692.94
2023-08-12T03:21:35.737Z,101672.69
2023-08-12T03:24:02.410Z,101661.22
2023-08-12T03:26:29.224Z,101663.06
2023-08-12T03:28:58.152Z,101669.25
2023-08-12T03:31:24.849Z,101676.22
2023-08-12T03:33:51.520Z,101593.00
2023-08-12T03:36:18.179Z,101627.66
2023-08-12T03:38:44.850Z,101637.56
2023-08-12T03:41:14.063Z,101651.78
2023-08-12T03:43:40.688Z,101588.72
2023-08-12T03:46:07.333Z,101652.59
2023-08-12T03:48:34.031Z,101659.66
2023-08-12T03:51:00.613Z,101630.38
2023-08-12T03:53:29.462Z,101662.22
2023-08-12T03:56:00.874Z,101660.44
2023-08-12T03:58:27.548Z,101638.25
2023-08-12T04:00:54.238Z,101660.22
2023-08-12T04:03:21.004Z,101608.91
2023-08-12T04:05:53.371Z,101659.38
2023-08-12T04:08:26.693Z,101651.50
2023-08-12T04:10:55.835Z,101648.84
2023-08-12T04:13:22.466Z,101632.81
2023-08-12T04:15:54.318Z,101646.16
2023-08-12T04:18:21.527Z,101652.25
2023-08-12T04:20:52.377Z,101585.75
2023-08-12T04:23:21.752Z,101643.28
2023-08-12T04:25:49.300Z,101653.88
2023-08-12T04:28:19.564Z,101612.19
2023-08-12T04:30:48.068Z,101633.56
2023-08-12T04:33:15.386Z,101635.28
2023-08-12T04:35:45.241Z,101624.50
2023-08-12T04:38:11.923Z,101613.94
2023-08-12T04:40:42.081Z,101655.75
2023-08-12T04:43:14.682Z,101649.66
2023-08-12T04:45:41.337Z,101651.63
2023-08-12T04:48:09.741Z,101652.59
2023-08-12T04:50:36.599Z,101643.97
2023-08-12T04:53:07.976Z,101629.88
2023-08-12T04:55:36.242Z,101620.19
2023-08-12T04:58:03.952Z,101627.34
2023-08-12T05:00:31.595Z,101621.19
2023-08-12T05:02:58.469Z,101635.47
2023-08-12T05:05:30.107Z,101645.31
2023-08-12T05:07:59.762Z,101593.13
2023-08-12T05:10:26.481Z,101647.22
2023-08-12T05:12:55.449Z,101620.78
2023-08-12T05:15:26.859Z,101640.38
2023-08-12T05:17:55.772Z,101645.66
2023-08-12T05:20:22.504Z,101638.78
2023-08-12T05:22:51.440Z,101607.81
2023-08-12T05:25:18.061Z,101642.31
2023-08-12T05:27:44.950Z,101636.31
2023-08-12T05:30:12.266Z,101637.25
2023-08-12T05:32:41.216Z,101614.25
2023-08-12T05:35:10.641Z,101609.91
2023-08-12T05:37:42.328Z,101613.47
2023-08-12T05:40:12.825Z,101636.75
2023-08-12T05:42:41.793Z,101639.53
2023-08-12T05:45:09.065Z,101620.16
2023-08-12T05:47:38.163Z,101645.94
2023-08-12T05:50:05.316Z,101639.06
2023-08-12T05:52:32.079Z,101600.31
2023-08-12T05:55:01.123Z,101632.25
2023-08-12T05:57:29.670Z,101640.19
2023-08-12T05:59:56.848Z,101624.44
2023-08-12T06:02:23.655Z,101621.03
2023-08-12T06:04:52.673Z,101614.84
2023-08-12T06:07:19.636Z,101637.09
2023-08-12T06:09:46.330Z,101641.59
2023-08-12T06:12:15.323Z,101595.63
2023-08-12T06:14:42.158Z,101641.78
2023-08-12T06:17:11.248Z,101642.81
2023-08-12T06:19:37.915Z,101642.13
2023-08-12T06:22:04.673Z,101646.72
2023-08-12T06:24:31.309Z,101643.38
2023-08-12T06:26:58.085Z,101627.59
2023-08-12T06:29:27.034Z,101617.13
2023-08-12T06:31:56.913Z,101655.38
2023-08-12T06:34:23.616Z,101637.03
2023-08-12T06:36:54.699Z,101636.25
2023-08-12T06:39:21.306Z,101646.00
2023-08-12T06:41:52.189Z,101646.13
2023-08-12T06:44:21.059Z,101623.19
2023-08-12T06:46:47.714Z,101645.53
2023-08-12T06:49:14.402Z,101641.34
2023-08-12T06:51:41.002Z,101629.97
2023-08-12T06:54:07.862Z,101638.19
2023-08-12T06:56:34.753Z,101643.75
2023-08-12T06:59:01.411Z,101643.03
2023-08-12T07:01:30.365Z,101626.44
2023-08-12T07:03:57.270Z,101606.25
2023-08-12T07:06:28.839Z,101642.63
2023-08-12T07:08:55.597Z,101637.34
2023-08-12T07:11:22.323Z,101638.88
2023-08-12T07:13:51.591Z,101634.06
2023-08-12T07:16:20.703Z,101639.69
2023-08-12T07:18:47.404Z,101638.63
2023-08-12T07:21:14.143Z,101633.41
2023-08-12T07:23:44.085Z,101643.28
2023-08-12T07:26:15.503Z,101638.75
2023-08-12T07:28:45.037Z,101563.44
2023-08-12T07:31:13.918Z,101638.47
2023-08-12T07:33:40.734Z,101614.44
2023-08-12T07:36:09.926Z,101614.44
2023-08-12T07:38:36.629Z,101570.59
2023-08-12T07:41:05.811Z,101630.28
2023-08-12T07:43:32.526Z,101633.44
2023-08-12T07:46:09.425Z,101587.09
2023-08-12T07:48:36.490Z,101631.47
2023-08-12T07:51:03.401Z,101628.22
2023-08-12T07:53:30.066Z,101633.63
2023-08-12T07:55:59.195Z,101615.94
2023-08-12T07:58:25.837Z,101610.53
2023-08-12T08:00:57.093Z,101592.50
2023-08-12T08:03:23.829Z,101633.00
2023-08-12T08:05:55.004Z,101608.31
2023-08-12T08:08:21.790Z,101611.69
2023-08-12T08:10:51.556Z,101616.50
2023-08-12T08:13:22.806Z,101623.63
2023-08-12T08:15:49.530Z,101622.16
2023-08-12T08:18:19.651Z,101622.97
2023-08-12T08:20:48.595Z,101628.59
2023-08-12T08:23:15.378Z,101611.47
2023-08-12T08:25:45.027Z,101623.59
2023-08-12T08:28:11.912Z,101611.47
2023-08-12T08:30:38.870Z,101632.53
2023-08-12T08:33:09.485Z,101620.38
2023-08-12T08:35:36.312Z,101624.81
2023-08-12T08:38:03.069Z,101608.03
2023-08-12T08:40:29.742Z,101605.06
2023-08-12T08:43:05.275Z,101598.09
2023-08-12T08:45:33.911Z,101611.88
2023-08-12T08:48:04.159Z,101603.41
2023-08-12T08:50:34.988Z,101604.72
2023-08-12T08:53:06.051Z,101601.22
2023-08-12T08:55:33.324Z,101607.13
2023-08-12T08:58:06.005Z,101614.41
2023-08-12T09:00:35.888Z,101598.56
2023-08-12T09:03:03.927Z,101575.13
2023-08-12T09:05:32.074Z,101601.72
2023-08-12T09:08:00.436Z,101580.88
2023-08-12T09:10:29.669Z,101591.75
2023-08-12T09:13:00.250Z,101595.47
2023-08-12T09:15:27.424Z,101599.75
2023-08-12T09:17:54.349Z,101595.66
2023-08-12T09:20:22.353Z,101615.75
2023-08-12T09:22:56.950Z,101574.38
2023-08-12T09:25:25.704Z,101615.50
2023-08-12T09:27:55.985Z,101609.16
2023-08-12T09:30:23.449Z,101600.94
2023-08-12T09:33:05.598Z,101584.88
2023-08-12T09:35:42.857Z,101612.38
2023-08-12T09:38:14.133Z,101622.56
2023-08-12T09:40:41.199Z,101560.59
2023-08-12T09:43:08.455Z,101628.56
2023-08-12T09:45:38.816Z,101631.16
2023-08-12T09:48:10.955Z,101624.81
2023-08-12T09:50:42.329Z,101636.00
2023-08-12T09:53:10.670Z,101639.28
2023-08-12T09:55:42.561Z,101636.28
2023-08-12T09:58:11.322Z,101628.84
2023-08-12T10:00:38.330Z,101621.19
2023-08-12T10:03:08.033Z,101618.72
2023-08-12T10:05:35.404Z,101587.94
2023-08-12T10:08:05.116Z,101639.03
2023-08-12T10:10:33.997Z,101632.84
2023-08-12T10:13:03.717Z,101643.31
2023-08-12T10:15:31.100Z,101644.94
2023-08-12T10:17:57.781Z,101627.22
2023-08-12T10:20:26.018Z,101638.75
2023-08-12T10:22:54.753Z,101649.38
2023-08-12T10:25:36.816Z,101619.44
2023-08-12T10:28:04.266Z,101625.63
2023-08-12T10:30:34.230Z,101647.66
2023-08-12T10:33:07.489Z,101619.38
2023-08-12T10:36:10.839Z,101639.59
2023-08-12T10:47:49.676Z,101638.50
2023-08-12T10:50:26.149Z,101638.38
2023-08-12T10:52:54.631Z,101651.47
2023-08-12T10:55:29.259Z,101611.59
2023-08-12T10:57:59.469Z,101642.31
2023-08-12T11:00:30.532Z,101627.25
2023-08-12T11:03:00.041Z,101629.81
2023-08-12T11:05:40.313Z,101599.94
2023-08-12T11:08:07.539Z,101640.50
2023-08-12T11:10:41.095Z,101638.66
2023-08-12T11:13:09.998Z,101618.13
2023-08-12T11:15:47.325Z,101628.84
2023-08-12T11:18:15.813Z,101634.19
2023-08-12T11:20:42.805Z,101633.38
2023-08-12T11:23:10.788Z,101637.91
2023-08-12T11:25:39.717Z,101639.81
2023-08-12T11:28:07.670Z,101629.34
2023-08-12T11:30:34.647Z,101622.38
2023-08-12T11:33:05.056Z,101633.88
2023-08-12T11:35:31.846Z,101527.31
2023-08-12T11:38:00.029Z,101632.97
2023-08-12T11:40:28.346Z,101617.81
2023-08-12T11:42:56.023Z,101631.03
2023-08-12T11:45:25.197Z,101632.00
2023-08-12T11:47:56.357Z,101630.38
2023-08-12T11:50:28.025Z,101602.31
2023-08-12T11:52:57.185Z,101593.34
2023-08-12T11:55:27.714Z,101599.31
2023-08-12T11:57:54.512Z,101607.97
2023-08-12T12:00:21.613Z,101627.50
2023-08-12T12:02:54.204Z,101625.91
2023-08-12T12:05:25.390Z,101552.16
2023-08-12T12:07:53.879Z,101610.47
2023-08-12T12:10:23.419Z,101626.47
2023-08-12T12:12:50.369Z,101611.56
2023-08-12T12:15:17.290Z,101622.22
2023-08-12T12:17:47.044Z,101627.53
2023-08-12T12:20:15.477Z,101583.41
2023-08-12T12:22:46.505Z,101614.13
2023-08-12T12:25:17.488Z,101611.41
2023-08-12T12:27:46.596Z,101599.84
2023-08-12T12:30:14.669Z,101615.59
2023-08-12T12:32:41.603Z,101590.81
2023-08-12T12:35:08.853Z,101607.38
2023-08-12T12:37:37.357Z,101557.09
2023-08-12T12:40:05.348Z,101607.97
2023-08-12T12:42:34.994Z,101604.34
2023-08-12T12:45:01.689Z,101610.50
2023-08-12T12:47:28.347Z,101607.03
2023-08-12T12:49:58.186Z,101615.78
2023-08-12T12:52:27.252Z,101615.81
2023-08-12T12:54:54.095Z,101608.88
2023-08-12T12:57:20.785Z,101612.47
2023-08-12T12:59:50.415Z,101596.72
2023-08-12T13:02:19.502Z,101592.34
2023-08-12T13:04:46.258Z,101608.16
2023-08-12T13:07:12.917Z,101606.50
2023-08-12T13:09:42.371Z,101591.56
2023-08-12T13:12:11.766Z,101626.94
2023-08-12T13:14:38.727Z,101633.41
2023-08-12T13:17:05.421Z,101622.97
2023-08-12T13:19:32.222Z,101625.75
2023-08-12T13:22:03.562Z,101625.91
2023-08-12T13:24:32.760Z,101625.19
2023-08-12T13:27:00.604Z,101635.06
2023-08-12T13:29:31.557Z,101615.75
2023-08-12T13:31:58.212Z,101634.34
2023-08-12T13:34:26.927Z,101629.06
2023-08-12T13:36:53.568Z,101628.19
2023-08-12T13:39:20.363Z,101629.94
2023-08-12T13:41:48.468Z,101630.81
2023-08-12T13:44:15.098Z,101613.16
2023-08-12T13:46:41.756Z,101613.16
2023-08-12T13:49:08.372Z,101611.31
2023-08-12T13:51:37.244Z,101551.38
2023-08-12T13:54:04.261Z,101617.47
2023-08-12T13:56:33.184Z,101614.75
2023-08-12T13:59:02.068Z,101588.34
2023-08-12T14:01:31.020Z,101627.16
2023-08-12T14:03:57.692Z,101626.31
2023-08-12T14:06:24.367Z,101614.00
2023-08-12T14:08:51.058Z,101619.34
2023-08-12T14:11:17.749Z,101626.41
2023-08-12T14:13:44.444Z,101631.69
2023-08-12T14:16:11.250Z,101612.25
2023-08-12T14:18:40.228Z,101624.63
2023-08-12T14:21:07.122Z,101623.69
2023-08-12T14:23:33.826Z,101632.53
2023-08-12T14:26:00.485Z,101626.31
2023-08-12T14:28:27.149Z,101598.09
2023-08-12T14:30:55.410Z,101636.06
2023-08-12T14:33:24.384Z,101622.91
2023-08-12T14:35:52.445Z,101630.84
2023-08-12T14:38:19.090Z,101602.66
2023-08-12T14:40:51.805Z,101611.47
2023-08-12T14:43:18.607Z,101605.25
2023-08-12T14:45:48.363Z,101621.13
2023-08-12T14:48:19.334Z,101620.19
2023-08-12T14:50:48.679Z,101510.00
2023-08-12T14:53:15.403Z,101592.81
2023-08-12T14:55:42.325Z,101603.41
2023-08-12T14:58:11.998Z,101617.47
2023-08-12T15:00:38.733Z,101613.94
2023-08-12T15:03:05.799Z,101617.47
2023-08-12T15:05:32.538Z,101617.41
2023-08-12T15:08:03.332Z,101608.59
2023-08-12T15:10:31.651Z,101610.31
2023-08-12T15:12:58.425Z,101582.16
2023-08-12T15:15:27.631Z,101604.19
2023-08-12T15:17:56.560Z,101605.94
2023-08-12T15:20:23.260Z,101580.38
2023-08-12T15:22:50.960Z,101594.50
2023-08-12T15:25:17.840Z,101576.00
2023-08-12T15:27:45.064Z,101604.22
2023-08-12T15:30:14.364Z,101589.31
2023-08-12T15:32:43.076Z,101617.59
2023-08-12T15:35:13.151Z,101605.25
2023-08-12T15:37:42.255Z,101605.31
2023-08-12T15:40:10.144Z,101603.53
2023-08-12T15:42:39.335Z,101609.75
2023-08-12T15:45:06.701Z,101613.31
2023-08-12T15:47:36.859Z,101611.56
2023-08-12T15:50:03.709Z,101608.06
2023-08-12T15:52:34.097Z,101615.09
2023-08-12T15:55:00.826Z,101576.31
2023-08-12T15:57:30.973Z,101612.44
2023-08-12T15:59:57.684Z,101606.28
2023-08-12T16:02:24.419Z,101606.28
2023-08-12T16:04:51.267Z,101599.19
2023-08-12T16:07:19.710Z,101607.13
2023-08-12T16:09:48.710Z,101600.97
2023-08-12T16:12:20.122Z,101610.69
2023-08-12T16:14:47.463Z,101604.50
2023-08-12T16:17:16.659Z,101586.00
2023-08-12T16:19:46.438Z,101599.25
2023-08-12T16:22:14.463Z,101579.00
2023-08-12T16:24:47.004Z,101597.53
2023-08-12T16:27:14.285Z,101609.03
2023-08-12T16:29:40.963Z,101604.63
2023-08-12T16:32:08.081Z,101603.75
2023-08-12T16:34:34.773Z,101600.22
2023-08-12T16:37:20.346Z,101603.78
2023-08-12T16:39:51.786Z,101548.19
2023-08-12T16:42:22.675Z,101549.06
2023-08-12T16:44:49.749Z,101576.44
2023-08-12T16:47:16.473Z,101606.41
2023-08-12T16:49:45.355Z,101601.13
2023-08-12T16:52:14.001Z,101528.81
2023-08-12T16:54:43.948Z,101606.44
2023-08-12T16:57:13.503Z,101600.25
2023-08-12T16:59:40.147Z,101542.03
2023-08-12T17:02:07.136Z,101604.69
2023-08-12T17:04:36.185Z,101575.56
2023-08-12T17:07:03.295Z,101606.44
2023-08-12T17:09:34.622Z,101573.81
2023-08-12T17:12:02.949Z,101594.97
2023-08-12T17:14:32.238Z,101515.53
2023-08-12T17:16:59.008Z,101591.44
2023-08-12T17:19:26.001Z,101593.22
2023-08-12T17:21:53.043Z,101573.78
2023-08-12T17:24:20.004Z,101585.28
2023-08-12T17:26:49.046Z,101589.66
2023-08-12T17:29:15.826Z,101586.13
2023-08-12T17:31:44.890Z,101590.56
2023-08-12T17:34:11.756Z,101586.13
2023-08-12T17:36:38.587Z,101590.53
2023-08-12T17:39:05.828Z,101573.81
2023-08-12T17:41:37.021Z,101576.38
2023-08-12T17:44:04.117Z,101581.69
2023-08-12T17:46:30.850Z,101594.88
2023-08-12T17:48:57.558Z,101560.47
2023-08-12T17:51:27.313Z,101584.28
2023-08-12T17:53:54.031Z,101583.41
2023-08-12T17:56:22.978Z,101586.03
2023-08-12T17:58:50.405Z,101543.69
2023-08-12T18:01:17.293Z,101559.53
2023-08-12T18:03:44.018Z,101594.84
2023-08-12T18:06:10.847Z,101564.84
2023-08-12T18:08:39.029Z,101587.78
2023-08-12T18:11:05.808Z,101586.88
2023-08-12T18:13:32.537Z,101569.19
2023-08-12T18:16:02.755Z,101591.22
2023-08-12T18:18:31.689Z,101580.59
2023-08-12T18:20:58.742Z,101530.16
2023-08-12T18:23:25.641Z,101591.94
2023-08-12T18:25:54.501Z,101599.84
2023-08-12T18:28:21.176Z,101602.47
2023-08-12T18:30:47.911Z,101593.63
2023-08-12T18:33:14.588Z,101613.81
2023-08-12T18:35:43.489Z,101603.25
2023-08-12T18:38:12.533Z,101606.69
2023-08-12T18:40:41.659Z,101607.53
2023-08-12T18:43:08.413Z,101594.22
2023-08-12T18:45:35.100Z,101618.06
2023-08-12T18:48:04.967Z,101615.41
2023-08-12T18:50:31.985Z,101610.06
2023-08-12T18:52:59.253Z,101617.09
2023-08-12T18:55:28.565Z,101616.16
2023-08-12T18:57:57.446Z,101619.63
2023-08-12T19:00:24.638Z,101607.22
2023-08-12T19:02:51.404Z,101612.47
2023-08-12T19:05:18.261Z,101617.69
2023-08-12T19:07:44.970Z,101631.78
2023-08-12T19:10:11.792Z,101578.66
2023-08-12T19:12:38.476Z,101616.63
2023-08-12T19:15:09.941Z,101614.78
2023-08-12T19:17:36.665Z,101636.91
2023-08-12T19:20:06.393Z,101642.09
2023-08-12T19:22:33.184Z,101632.38
2023-08-12T19:25:02.143Z,101634.06
2023-08-12T19:27:28.844Z,101610.22
2023-08-12T19:29:55.580Z,101631.38
2023-08-12T19:32:22.465Z,101637.47
2023-08-12T19:34:49.148Z,101626.84
2023-08-12T19:37:15.975Z,101631.22
2023-08-12T19:39:42.615Z,101571.78
2023-08-12T19:42:09.261Z,101644.25
2023-08-12T19:44:36.032Z,101647.75
2023-08-12T19:47:03.058Z,101622.00
2023-08-12T19:49:30.338Z,101664.31
2023-08-12T19:51:57.086Z,101665.19
2023-08-12T19:54:23.997Z,101673.00
2023-08-12T19:56:50.703Z,101670.31
2023-08-12T19:59:17.371Z,101551.56
2023-08-12T20:01:44.030Z,101607.25
2023-08-12T20:04:10.806Z,101671.81
2023-08-12T20:06:39.977Z,101675.22
2023-08-12T20:09:10.544Z,101660.22
2023-08-12T20:11:37.329Z,101676.09
2023-08-12T20:14:04.271Z,101641.50
2023-08-12T20:16:30.996Z,101668.88
2023-08-12T20:18:57.900Z,101662.72
2023-08-12T20:21:24.611Z,101656.41
2023-08-12T20:23:53.381Z,101643.03
2023-08-12T20:26:23.507Z,101627.06
2023-08-12T20:28:50.375Z,101666.84
2023-08-12T20:31:17.078Z,101667.69
2023-08-12T20:33:43.760Z,101667.63
2023-08-12T20:36:12.836Z,101663.09
2023-08-12T20:38:39.503Z,101675.44
2023-08-12T20:41:06.154Z,101667.47
2023-08-12T20:43:33.003Z,101674.47
2023-08-12T20:45:59.826Z,101652.31
2023-08-12T20:48:26.604Z,101683.22
2023-08-12T20:50:53.250Z,101672.66
2023-08-12T20:53:20.065Z,101642.53
2023-08-12T20:55:46.983Z,101663.72
2023-08-12T20:58:13.622Z,101657.56
2023-08-12T21:00:43.381Z,101653.97
2023-08-12T21:03:10.801Z,101673.44
2023-08-12T21:05:41.025Z,101614.09
2023-08-12T21:08:07.961Z,101674.28
2023-08-12T21:10:34.902Z,101668.88
2023-08-12T21:13:01.526Z,101653.91
2023-08-12T21:15:28.133Z,101676.84
2023-08-12T21:17:55.545Z,101670.56
2023-08-12T21:20:22.329Z,101657.19
2023-08-12T21:22:52.097Z,101602.16
2023-08-12T21:25:19.307Z,101659.75
2023-08-12T21:27:45.929Z,101673.97
2023-08-12T21:30:12.921Z,101676.63
2023-08-12T21:32:39.680Z,101678.28
2023-08-12T21:35:11.769Z,101677.56
2023-08-12T21:37:38.400Z,101674.84
2023-08-12T21:40:05.635Z,101672.19
2023-08-12T21:42:34.766Z,101642.00
2023-08-12T21:45:04.149Z,101661.56
2023-08-12T21:47:30.989Z,101675.78
2023-08-12T21:49:57.721Z,101669.50
2023-08-12T21:52:24.479Z,101688.91
2023-08-12T21:54:51.164Z,101685.44
2023-08-12T21:57:17.917Z,101682.81
2023-08-12T21:59:44.557Z,101681.03
2023-08-12T22:02:12.026Z,101678.41
2023-08-12T22:04:39.038Z,101667.84
2023-08-12T22:07:07.091Z,101666.03
2023-08-12T22:09:36.046Z,101665.91
2023-08-12T22:12:02.824Z,101673.03
2023-08-12T22:14:30.448Z,101672.97
2023-08-12T22:16:58.949Z,101648.16
2023-08-12T22:19:28.926Z,101659.63
2023-08-12T22:22:13.100Z,101677.19
2023-08-12T22:24:47.722Z,101679.75
2023-08-12T22:27:16.669Z,101606.34
2023-08-12T22:29:43.333Z,101669.09
2023-08-12T22:32:11.139Z,101669.06
2023-08-12T22:34:40.242Z,101659.19
2023-08-12T22:37:07.015Z,101664.56
2023-08-12T22:39:36.331Z,101628.09
2023-08-12T22:42:03.021Z,101620.19
2023-08-12T22:44:29.715Z,101668.84
2023-08-12T22:46:58.942Z,101640.59
2023-08-12T22:49:25.593Z,101651.94
2023-08-12T22:51:52.351Z,101608.47
2023-08-12T22:54:21.280Z,101658.16
2023-08-12T22:56:50.397Z,101628.94
2023-08-12T22:59:19.035Z,101659.97
2023-08-12T23:01:45.928Z,101654.75
2023-08-12T23:04:15.037Z,101645.81
2023-08-12T23:06:41.674Z,101664.38
2023-08-12T23:09:08.370Z,101617.41
2023-08-12T23:11:35.068Z,101641.47
2023-08-12T23:14:01.683Z,101633.50
2023-08-12T23:16:30.756Z,101653.00
2023-08-12T23:18:57.523Z,101658.28
2023-08-12T23:21:26.700Z,101657.47
2023-08-12T23:23:53.317Z,101650.38
2023-08-12T23:26:19.968Z,101649.63
2023-08-12T23:28:46.656Z,101641.63
2023-08-12T23:31:13.344Z,101635.53
2023-08-12T23:33:42.336Z,101642.72
2023-08-12T23:36:13.902Z,101640.09
2023-08-12T23:38:40.542Z,101595.88
2023-08-12T23:41:09.759Z,101650.66
2023-08-12T23:43:36.535Z,101629.47
2023-08-12T23:46:07.989Z,101611.78
2023-08-12T23:48:36.929Z,101650.72
2023-08-12T23:51:05.821Z,101588.75
2023-08-12T23:53:32.583Z,101651.50
2023-08-12T23:55:59.355Z,101636.56
2023-08-12T23:58:28.277Z,101655.97
